Shady Glen, California
Current Conditions -  °F | °C
As of 7:15 AM on Monday 24 Nov 2014 (Local Time) from KGOO Reporting Station
Clear Clear  
Wind Chill: 46°   Ceiling: Unl
Heat Index: 46°   Visibility: 10mi
Dew Point: 19°   Wind: 0mph
Humidity: 34%   Direction: NA
Pressure: 30.35"   Gusts: NA
Location:  39.0937°N, 120.92°W
Report Text: KGOO 241515Z AUTO 00000KT 10SM CLR 08/M07 A3035 RMK AO1
Loading
Personal Weather Stations






























Interactive Weather Map New forecast layout! Learn more

10-Day Weather Forecast

Advertisements
Track Severe Weather on mobile